Time;durP1;ratioP1;P1;durP2;ratioP2;P2;SDS_P1;SDS_P2;PMS_P1;PMS_P2;Temp;Humidity;BMP_temperature;BMP_pressure;BME280_temperature;BME280_humidity;BME280_pressure;Samples;Min_cycle;Max_cycle;Signal;HPM_P1;HPM_P2
2021/03/19 00:00:28;;;;;;;22.90;12.88;;;;;;;-0.42;100.00;96020.50;1028224;28;20015;-56
2021/03/19 00:00:58;;;;;;;25.38;13.18;;;;;;;-0.44;100.00;96013.72;1024273;29;20011;-56
2021/03/19 00:01:29;;;;;;;24.98;12.98;;;;;;;-0.62;100.00;96001.00;1032191;28;20014;-56
2021/03/19 00:02:00;;;;;;;23.73;13.60;;;;;;;-0.56;100.00;96018.00;1024395;29;20477;-56
2021/03/19 00:02:30;;;;;;;22.30;13.23;;;;;;;-0.52;100.00;96010.78;1032126;28;20014;-55
2021/03/19 00:03:01;;;;;;;23.63;13.07;;;;;;;-0.59;100.00;96015.63;1028097;28;20011;-56
2021/03/19 00:03:32;;;;;;;21.27;12.93;;;;;;;-0.51;100.00;96017.69;1028144;28;20026;-56
2021/03/19 00:04:02;;;;;;;23.08;12.73;;;;;;;-0.47;100.00;96016.53;1028238;28;20014;-56
2021/03/19 00:04:33;;;;;;;21.88;12.43;;;;;;;-0.44;100.00;96014.53;1036302;28;20510;-56
2021/03/19 00:05:07;;;;;;;24.58;13.77;;;;;;;-0.43;100.00;96016.22;1024318;28;20011;-56
2021/03/19 00:05:37;;;;;;;20.15;11.95;;;;;;;-0.48;100.00;96013.09;1016280;29;20024;-56
2021/03/19 00:06:08;;;;;;;25.35;13.57;;;;;;;-0.48;100.00;96014.88;1024295;28;20453;-57
2021/03/19 00:06:39;;;;;;;25.63;13.32;;;;;;;-0.39;100.00;96011.63;1036358;28;20044;-56
2021/03/19 00:07:10;;;;;;;22.42;13.30;;;;;;;-0.42;100.00;96011.81;1032406;28;20094;-56
2021/03/19 00:07:51;;;;;;;25.20;13.32;;;;;;;-0.46;100.00;96016.41;1032195;28;20023;-57
2021/03/19 00:08:21;;;;;;;24.13;13.30;;;;;;;-0.59;100.00;96005.19;1028278;28;20042;-57
2021/03/19 00:08:52;;;;;;;27.45;13.20;;;;;;;-0.46;100.00;96007.78;1036259;28;20447;-56
2021/03/19 00:09:23;;;;;;;23.48;13.05;;;;;;;-0.42;100.00;96011.81;1032028;28;20529;-56
2021/03/19 00:09:54;;;;;;;24.60;13.45;;;;;;;-0.44;100.00;96016.31;1032226;28;20045;-56
2021/03/19 00:10:27;;;;;;;21.95;12.10;;;;;;;-0.42;100.00;96017.03;1032319;28;20014;-53
2021/03/19 00:10:58;;;;;;;24.40;13.30;;;;;;;-0.43;100.00;96011.00;1028377;28;20022;-56
2021/03/19 00:11:28;;;;;;;21.85;13.05;;;;;;;-0.40;100.00;96012.53;1024026;28;20015;-56
2021/03/19 00:11:59;;;;;;;27.58;13.32;;;;;;;-0.41;100.00;96013.50;1028218;28;20108;-56
2021/03/19 00:12:30;;;;;;;23.15;13.48;;;;;;;-0.46;100.00;96007.78;1028187;28;20046;-55
2021/03/19 00:13:02;;;;;;;23.35;12.73;;;;;;;-0.42;100.00;96002.25;1032261;28;20037;-56
2021/03/19 00:13:33;;;;;;;24.88;13.45;;;;;;;-0.35;100.00;96010.44;1031897;28;20014;-57
2021/03/19 00:14:04;;;;;;;23.25;13.10;;;;;;;-0.41;100.00;96016.13;1024168;28;20019;-55
2021/03/19 00:14:35;;;;;;;24.50;13.38;;;;;;;-0.45;100.00;96010.28;1028154;28;20019;-56
2021/03/19 00:15:07;;;;;;;26.70;13.75;;;;;;;-0.45;100.00;96010.28;1028285;28;20121;-56
2021/03/19 00:15:38;;;;;;;22.77;13.32;;;;;;;-0.46;100.00;96013.00;1032172;28;20176;-56
2021/03/19 00:16:09;;;;;;;23.52;12.80;;;;;;;-0.47;100.00;96008.69;1028358;28;20031;-56
2021/03/19 00:16:40;;;;;;;24.63;13.50;;;;;;;-0.51;100.00;96015.09;1028170;28;20097;-55
2021/03/19 00:17:11;;;;;;;25.02;13.95;;;;;;;-0.54;100.00;96017.91;1032250;28;20117;-56
2021/03/19 00:17:44;;;;;;;25.05;13.45;;;;;;;-0.48;100.00;96007.88;1019977;29;20055;-56
2021/03/19 00:18:15;;;;;;;24.80;14.27;;;;;;;-0.52;100.00;96009.03;1032211;28;20105;-56
2021/03/19 00:18:46;;;;;;;24.85;13.00;;;;;;;-0.57;100.00;95998.91;1036210;28;20024;-57
2021/03/19 00:19:17;;;;;;;22.48;13.30;;;;;;;-0.43;100.00;96004.97;1024208;29;20026;-57
2021/03/19 00:19:48;;;;;;;29.00;14.60;;;;;;;-0.44;100.00;96011.94;1036081;28;20021;-56
2021/03/19 00:20:19;;;;;;;28.73;13.38;;;;;;;-0.39;100.00;96009.00;1032262;28;20041;-56
2021/03/19 00:20:49;;;;;;;23.85;13.80;;;;;;;-0.38;100.00;96016.72;1032240;28;20483;-56
2021/03/19 00:21:20;;;;;;;22.48;12.98;;;;;;;-0.37;100.00;96009.72;1032258;28;20034;-56
2021/03/19 00:21:51;;;;;;;24.60;13.32;;;;;;;-0.41;100.00;96008.28;1024076;28;20499;-56
2021/03/19 00:22:22;;;;;;;23.20;13.25;;;;;;;-0.41;100.00;96005.69;1036204;28;20052;-56
2021/03/19 00:22:53;;;;;;;21.90;13.48;;;;;;;-0.49;100.00;96003.59;1024131;28;20024;-56
2021/03/19 00:23:24;;;;;;;26.02;13.80;;;;;;;-0.52;100.00;96009.03;1032111;28;20054;-57
2021/03/19 00:23:54;;;;;;;24.23;13.70;;;;;;;-0.51;100.00;96000.25;1027845;28;20485;-56
2021/03/19 00:24:25;;;;;;;30.77;15.75;;;;;;;-0.52;100.00;96001.22;1028104;28;20525;-56
2021/03/19 00:24:56;;;;;;;26.38;14.07;;;;;;;-0.47;100.00;96000.88;1028148;28;20026;-57
2021/03/19 00:25:27;;;;;;;25.58;13.95;;;;;;;-0.55;100.00;95992.78;1028124;28;20113;-56
2021/03/19 00:25:57;;;;;;;23.45;13.40;;;;;;;-0.54;100.00;96002.25;1036035;28;20025;-57
2021/03/19 00:26:28;;;;;;;25.90;14.35;;;;;;;-0.58;100.00;95997.25;1028262;28;20041;-57
2021/03/19 00:26:59;;;;;;;22.83;14.32;;;;;;;-0.48;100.00;96001.84;1024120;28;20484;-56
2021/03/19 00:27:30;;;;;;;25.05;14.65;;;;;;;-0.43;100.00;95999.75;1024086;28;20054;-56
2021/03/19 00:28:01;;;;;;;24.90;14.45;;;;;;;-0.44;100.00;96000.66;1020054;29;20493;-56
2021/03/19 00:28:31;;;;;;;24.48;13.95;;;;;;;-0.43;100.00;96007.56;1024138;28;20078;-55
2021/03/19 00:29:02;;;;;;;25.17;14.07;;;;;;;-0.54;100.00;96002.25;1020219;28;20512;-57
2021/03/19 00:29:33;;;;;;;27.63;14.63;;;;;;;-0.63;100.00;95981.09;1028136;28;20106;-56
2021/03/19 00:30:05;;;;;;;25.05;14.85;;;;;;;-0.51;100.00;95994.22;1024126;28;20023;-56
2021/03/19 00:30:37;;;;;;;26.45;15.05;;;;;;;-0.48;100.00;95999.22;1028066;28;20029;-55
2021/03/19 00:31:07;;;;;;;26.17;14.40;;;;;;;-0.45;100.00;95997.25;1032117;28;20026;-57
2021/03/19 00:31:38;;;;;;;26.23;15.00;;;;;;;-0.48;100.00;95997.44;1024224;28;20027;-56
2021/03/19 00:32:09;;;;;;;32.78;15.35;;;;;;;-0.59;100.00;95989.53;1032167;28;20022;-54
2021/03/19 00:32:41;;;;;;;25.17;14.38;;;;;;;-0.50;100.00;95998.50;1023934;28;20019;-57
2021/03/19 00:33:13;;;;;;;26.33;15.82;;;;;;;-0.48;100.00;95999.22;1020208;29;20111;-56
2021/03/19 00:33:43;;;;;;;27.45;14.95;;;;;;;-0.48;100.00;95997.44;1020055;29;20046;-56
2021/03/19 00:34:14;;;;;;;29.73;15.50;;;;;;;-0.49;100.00;95994.94;1032064;28;20579;-56
2021/03/19 00:34:45;;;;;;;29.50;14.93;;;;;;;-0.51;100.00;95986.38;1031999;28;20498;-56
2021/03/19 00:35:15;;;;;;;26.13;15.40;;;;;;;-0.49;100.00;95989.72;1032075;28;20022;-56
2021/03/19 00:35:46;;;;;;;26.33;14.98;;;;;;;-0.43;100.00;96000.56;1032145;28;20519;-56
2021/03/19 00:36:18;;;;;;;29.85;15.57;;;;;;;-0.40;100.00;96000.34;1024088;29;20038;-56
2021/03/19 00:36:48;;;;;;;30.52;16.08;;;;;;;-0.45;100.00;95991.19;1016148;29;20019;-56
2021/03/19 00:37:19;;;;;;;31.10;16.00;;;;;;;-0.50;100.00;95998.50;1024000;29;20272;-56
2021/03/19 00:37:50;;;;;;;32.40;16.17;;;;;;;-0.42;100.00;95985.75;1028076;28;20505;-56
2021/03/19 00:38:21;;;;;;;30.40;16.50;;;;;;;-0.44;100.00;95985.84;1032119;28;20022;-56
2021/03/19 00:38:52;;;;;;;28.77;15.77;;;;;;;-0.47;100.00;95993.06;1027902;28;20554;-56
2021/03/19 00:39:23;;;;;;;27.70;15.55;;;;;;;-0.51;100.00;95996.81;1032182;28;20073;-56
2021/03/19 00:39:54;;;;;;;28.77;16.23;;;;;;;-0.52;100.00;96000.38;1032097;28;20029;-56
2021/03/19 00:40:24;;;;;;;26.13;15.35;;;;;;;-0.44;100.00;95995.44;1032123;28;20587;-56
2021/03/19 00:40:55;;;;;;;27.95;15.55;;;;;;;-0.50;100.00;95977.63;1028059;28;20585;-56
2021/03/19 00:41:26;;;;;;;31.33;15.00;;;;;;;-0.46;100.00;95997.34;1027957;28;20022;-55
2021/03/19 00:41:57;;;;;;;28.02;14.88;;;;;;;-0.44;100.00;95995.44;1028008;28;20035;-58
2021/03/19 00:42:27;;;;;;;24.92;15.13;;;;;;;-0.46;100.00;95984.31;1028035;28;20113;-56
2021/03/19 00:42:58;;;;;;;27.02;16.55;;;;;;;-0.41;100.00;95985.63;1016019;29;20038;-56
2021/03/19 00:43:29;;;;;;;28.52;15.55;;;;;;;-0.41;100.00;95990.03;1031870;28;20025;-53
2021/03/19 00:44:00;;;;;;;29.63;16.23;;;;;;;-0.36;100.00;95985.31;1027972;28;20493;-56
2021/03/19 00:44:30;;;;;;;26.85;14.70;;;;;;;-0.43;100.00;95978.88;1028154;28;20110;-55
2021/03/19 00:45:02;;;;;;;28.35;15.38;;;;;;;-0.37;100.00;95986.25;1027877;28;20015;-56
2021/03/19 00:45:33;;;;;;;27.58;15.57;;;;;;;-0.36;100.00;95985.31;1019767;29;20055;-56
2021/03/19 00:46:04;;;;;;;29.10;15.85;;;;;;;-0.38;100.00;95985.44;1028077;28;20074;-56
2021/03/19 00:46:35;;;;;;;27.95;16.13;;;;;;;-0.30;100.00;95984.88;1024065;28;20070;-56
2021/03/19 00:47:05;;;;;;;27.80;15.52;;;;;;;-0.28;100.00;95982.16;1036067;28;20013;-56
2021/03/19 00:47:36;;;;;;;28.23;15.77;;;;;;;-0.31;100.00;95985.00;1023958;28;20019;-56
2021/03/19 00:48:09;;;;;;;30.40;15.50;;;;;;;-0.29;100.00;95972.69;1024109;29;20532;-56
2021/03/19 00:48:39;;;;;;;31.70;16.50;;;;;;;-0.28;100.00;95983.00;1027950;28;20464;-53
2021/03/19 00:49:10;;;;;;;28.90;16.50;;;;;;;-0.33;100.00;95979.91;1020141;28;20016;-56
2021/03/19 00:49:41;;;;;;;29.92;16.00;;;;;;;-0.40;100.00;95981.25;1019964;29;20492;-55
2021/03/19 00:50:14;;;;;;;27.98;15.75;;;;;;;-0.34;100.00;95983.44;1028071;28;20121;-56
2021/03/19 00:50:44;;;;;;;28.75;14.90;;;;;;;-0.51;100.00;95970.75;1024015;28;20030;-56
2021/03/19 00:51:15;;;;;;;33.35;17.08;;;;;;;-0.42;100.00;95980.53;1027968;28;20015;-56
2021/03/19 00:51:46;;;;;;;29.20;16.92;;;;;;;-0.47;100.00;95980.00;1024010;28;20488;-56
2021/03/19 00:52:16;;;;;;;29.13;16.30;;;;;;;-0.50;100.00;95993.28;1028116;28;20077;-56
2021/03/19 00:52:47;;;;;;;32.83;16.95;;;;;;;-0.48;100.00;95980.97;1027980;28;20015;-57
2021/03/19 00:53:18;;;;;;;32.10;17.25;;;;;;;-0.52;100.00;95982.97;1027931;28;20019;-56
2021/03/19 00:53:48;;;;;;;33.03;16.45;;;;;;;-0.51;100.00;95983.78;1023640;29;20015;-56
2021/03/19 00:54:19;;;;;;;31.92;17.40;;;;;;;-0.53;100.00;95983.06;1036092;28;20064;-56
2021/03/19 00:54:50;;;;;;;37.03;17.25;;;;;;;-0.59;100.00;95984.34;1040276;28;20132;-55
2021/03/19 00:55:21;;;;;;;31.05;16.60;;;;;;;-0.52;100.00;95979.50;1020480;29;20457;-56
2021/03/19 00:55:51;;;;;;;34.08;17.90;;;;;;;-0.50;100.00;95978.47;1028017;28;20031;-55
2021/03/19 00:56:22;;;;;;;34.58;16.88;;;;;;;-0.59;100.00;95979.94;1028027;28;20036;-57
2021/03/19 00:56:53;;;;;;;30.83;16.60;;;;;;;-0.57;100.00;95980.66;1036130;28;20025;-56
2021/03/19 00:57:24;;;;;;;33.55;17.42;;;;;;;-0.59;100.00;95979.94;1027888;28;20011;-56
2021/03/19 00:57:55;;;;;;;30.98;17.17;;;;;;;-0.61;100.00;95987.03;1027909;28;20461;-56
2021/03/19 00:58:26;;;;;;;37.58;18.52;;;;;;;-0.60;100.00;95980.03;1024129;28;20019;-56
2021/03/19 00:58:56;;;;;;;33.38;17.60;;;;;;;-0.56;100.00;95978.88;1024022;28;20015;-56
2021/03/19 00:59:28;;;;;;;32.38;18.08;;;;;;;-0.57;100.00;95983.25;1028019;28;20015;-56
2021/03/19 00:59:58;;;;;;;32.47;17.23;;;;;;;-0.63;100.00;95977.63;1027917;28;20061;-57
2021/03/19 01:00:33;;;;;;;31.85;16.95;;;;;;;-0.60;100.00;95967.81;1028068;28;20022;-55
2021/03/19 01:01:04;;;;;;;32.15;17.65;;;;;;;-0.51;100.00;95971.56;1031951;28;20086;-56
2021/03/19 01:01:35;;;;;;;36.92;18.35;;;;;;;-0.54;100.00;95982.25;1023943;29;20034;-56
2021/03/19 01:02:05;;;;;;;32.58;18.00;;;;;;;-0.52;100.00;95967.31;1031924;28;20014;-56
2021/03/19 01:02:36;;;;;;;34.45;18.70;;;;;;;-0.52;100.00;95971.66;1028081;28;20318;-56
2021/03/19 01:03:07;;;;;;;34.63;18.50;;;;;;;-0.55;100.00;95977.94;1031934;28;20094;-56
2021/03/19 01:03:38;;;;;;;35.65;18.88;;;;;;;-0.49;100.00;95974.91;1027803;28;20448;-56
2021/03/19 01:04:09;;;;;;;35.65;18.55;;;;;;;-0.45;100.00;95973.75;1031907;28;20080;-56
2021/03/19 01:04:39;;;;;;;35.85;19.08;;;;;;;-0.50;100.00;95972.41;1027942;28;20085;-57
2021/03/19 01:05:16;;;;;;;35.55;17.67;;;;;;;-0.49;100.00;95967.06;1031952;28;20024;-56
2021/03/19 01:05:47;;;;;;;33.53;17.35;;;;;;;-0.50;100.00;95969.81;1032082;28;20014;-56
2021/03/19 01:06:17;;;;;;;30.45;17.38;;;;;;;-0.51;100.00;95968.13;1015991;29;20045;-55
2021/03/19 01:06:48;;;;;;;32.35;17.20;;;;;;;-0.48;100.00;95967.94;1031944;28;20038;-56
2021/03/19 01:07:19;;;;;;;34.58;18.27;;;;;;;-0.54;100.00;95965.72;1023911;28;20022;-56
2021/03/19 01:07:50;;;;;;;34.17;16.95;;;;;;;-0.65;100.00;95972.53;1023941;28;20055;-56
2021/03/19 01:08:20;;;;;;;32.53;17.75;;;;;;;-0.56;100.00;95965.84;1027784;28;20026;-56
2021/03/19 01:08:51;;;;;;;35.58;18.08;;;;;;;-0.55;100.00;95969.31;1019986;29;20015;-56
2021/03/19 01:09:22;;;;;;;31.05;17.52;;;;;;;-0.54;100.00;95968.34;1027890;28;20015;-56
2021/03/19 01:09:53;;;;;;;33.40;16.38;;;;;;;-0.55;100.00;95966.69;1023792;28;20520;-56
2021/03/19 01:10:36;;;;;;;32.58;18.25;;;;;;;-0.59;100.00;95972.13;1023247;29;20019;-56
2021/03/19 01:11:06;;;;;;;31.55;17.27;;;;;;;-0.56;100.00;95963.22;1031943;28;20496;-56
2021/03/19 01:11:37;;;;;;;31.45;17.02;;;;;;;-0.55;100.00;95966.69;1027999;28;20122;-57
2021/03/19 01:12:08;;;;;;;33.92;17.80;;;;;;;-0.57;100.00;95966.78;1023913;28;20051;-55
2021/03/19 01:12:38;;;;;;;36.17;17.42;;;;;;;-0.54;100.00;95965.72;1027931;28;20029;-56
2021/03/19 01:13:09;;;;;;;32.78;18.20;;;;;;;-0.55;100.00;95959.69;1019914;28;20019;-55
2021/03/19 01:13:40;;;;;;;28.00;16.35;;;;;;;-0.49;100.00;95966.25;1031790;28;20547;-55
2021/03/19 01:14:11;;;;;;;31.80;17.92;;;;;;;-0.52;100.00;95964.69;1023910;28;20461;-56
2021/03/19 01:14:42;;;;;;;34.15;17.73;;;;;;;-0.59;100.00;95964.28;1027959;28;20109;-55
2021/03/19 01:15:13;;;;;;;36.20;18.55;;;;;;;-0.60;100.00;95961.78;1027851;28;20023;-56
2021/03/19 01:15:44;;;;;;;35.30;18.83;;;;;;;-0.55;100.00;95958.88;1031980;28;20014;-55
2021/03/19 01:16:15;;;;;;;32.35;17.40;;;;;;;-0.56;100.00;95963.22;1027907;28;20027;-56
2021/03/19 01:16:46;;;;;;;37.42;18.50;;;;;;;-0.63;100.00;95965.47;1023765;29;20015;-53
2021/03/19 01:17:17;;;;;;;33.65;17.70;;;;;;;-0.64;100.00;95966.38;1023802;29;20470;-54
2021/03/19 01:17:47;;;;;;;31.88;18.17;;;;;;;-0.61;100.00;95968.78;1027870;28;20015;-55
2021/03/19 01:18:21;;;;;;;37.97;17.83;;;;;;;-0.68;100.00;95959.72;1027858;28;20019;-56
2021/03/19 01:18:52;;;;;;;33.83;18.50;;;;;;;-0.69;100.00;95963.25;1023867;28;20367;-55
2021/03/19 01:19:22;;;;;;;36.47;18.73;;;;;;;-0.74;100.00;95954.94;1023975;29;20079;-56
2021/03/19 01:19:53;;;;;;;34.80;18.35;;;;;;;-0.68;100.00;95964.94;1031857;28;20480;-56
2021/03/19 01:20:26;;;;;;;40.63;19.48;;;;;;;-0.72;100.00;95962.63;1028007;28;20018;-56
2021/03/19 01:20:56;;;;;;;37.63;19.40;;;;;;;-0.68;100.00;95959.72;1031812;28;20074;-56
2021/03/19 01:21:27;;;;;;;38.67;18.48;;;;;;;-0.70;100.00;95955.53;1028042;28;20046;-56
2021/03/19 01:21:58;;;;;;;39.83;19.77;;;;;;;-0.68;100.00;95959.72;1023905;28;20393;-54
2021/03/19 01:22:29;;;;;;;37.53;18.77;;;;;;;-0.79;100.00;95962.22;1027901;28;20019;-56
2021/03/19 01:23:00;;;;;;;34.50;18.50;;;;;;;-0.73;100.00;95958.34;1031735;28;20027;-56
2021/03/19 01:23:31;;;;;;;32.38;18.63;;;;;;;-0.76;100.00;95952.41;1027689;28;20035;-57
2021/03/19 01:24:03;;;;;;;42.28;19.38;;;;;;;-0.77;100.00;95955.13;1031788;28;20014;-56
2021/03/19 01:24:33;;;;;;;36.03;19.08;;;;;;;-0.81;100.00;95953.69;1031990;28;20097;-56
2021/03/19 01:25:06;;;;;;;40.10;19.15;;;;;;;-0.77;100.00;95952.53;1023772;28;20485;-53
2021/03/19 01:25:37;;;;;;;36.45;19.35;;;;;;;-0.78;100.00;95951.69;1024024;28;20025;-57
2021/03/19 01:26:11;;;;;;;37.50;21.02;;;;;;;-0.77;100.00;95947.31;1031874;28;20014;-57
2021/03/19 01:26:41;;;;;;;36.83;18.27;;;;;;;-0.78;100.00;95950.88;1031918;28;20030;-56
2021/03/19 01:27:12;;;;;;;40.75;19.55;;;;;;;-0.90;100.00;95946.50;1031812;28;20026;-56
2021/03/19 01:27:44;;;;;;;41.25;20.17;;;;;;;-0.88;100.00;95947.22;1035877;28;20498;-56
2021/03/19 01:28:14;;;;;;;36.80;19.25;;;;;;;-0.92;100.00;95956.19;1031800;28;20037;-55
2021/03/19 01:28:47;;;;;;;39.75;20.20;;;;;;;-0.93;100.00;95949.31;1027902;28;20042;-56
2021/03/19 01:29:18;;;;;;;38.25;19.48;;;;;;;-1.01;100.00;95942.88;1019927;29;20019;-56
2021/03/19 01:29:49;;;;;;;39.67;19.45;;;;;;;-0.97;100.00;95948.69;1023864;29;20055;-52
2021/03/19 01:30:22;;;;;;;40.30;20.17;;;;;;;-0.92;100.00;95949.22;1031962;28;20049;-56
2021/03/19 01:30:53;;;;;;;40.53;19.00;;;;;;;-0.90;100.00;95949.13;1027807;28;20039;-56
2021/03/19 01:31:23;;;;;;;34.47;18.70;;;;;;;-0.91;100.00;95947.44;1027816;28;20437;-56
2021/03/19 01:31:55;;;;;;;42.70;21.00;;;;;;;-1.00;100.00;95944.50;1023839;29;20027;-55
2021/03/19 01:32:25;;;;;;;39.22;19.95;;;;;;;-1.01;100.00;95949.81;1031773;28;20396;-57
2021/03/19 01:32:56;;;;;;;40.75;19.65;;;;;;;-0.99;100.00;95948.78;1027750;28;20031;-57
2021/03/19 01:33:27;;;;;;;40.92;19.65;;;;;;;-0.95;100.00;95941.59;1031853;28;20029;-56
2021/03/19 01:33:59;;;;;;;39.67;20.77;;;;;;;-0.96;100.00;95943.38;1035669;28;20026;-57
2021/03/19 01:34:30;;;;;;;39.95;19.67;;;;;;;-1.02;100.00;95949.00;1023880;28;20462;-55
2021/03/19 01:35:00;;;;;;;41.35;20.02;;;;;;;-1.27;100.00;95909.91;1027816;28;20019;-56
2021/03/19 01:35:32;;;;;;;40.42;19.35;;;;;;;-1.06;100.00;95938.88;1019876;29;20560;-56
2021/03/19 01:36:06;;;;;;;40.80;20.80;;;;;;;-1.02;100.00;95949.00;1023937;28;20525;-56
2021/03/19 01:36:37;;;;;;;39.97;20.70;;;;;;;-1.04;100.00;95948.28;1023933;28;20477;-56
2021/03/19 01:37:07;;;;;;;50.45;21.95;;;;;;;-1.04;100.00;95950.88;1023845;28;20023;-55
2021/03/19 01:37:42;;;;;;;38.90;20.20;;;;;;;-1.01;100.00;95948.06;1035841;28;20021;-57
2021/03/19 01:38:13;;;;;;;44.10;20.17;;;;;;;-1.01;100.00;95944.63;1031818;28;20046;-57
2021/03/19 01:38:44;;;;;;;40.67;21.05;;;;;;;-1.06;100.00;95944.94;1031944;28;20018;-56
2021/03/19 01:39:15;;;;;;;44.40;21.42;;;;;;;-1.12;100.00;95942.75;1035889;28;20024;-57
2021/03/19 01:39:45;;;;;;;38.70;19.83;;;;;;;-1.10;100.00;95948.69;1031977;28;20075;-56
2021/03/19 01:40:17;;;;;;;41.60;21.25;;;;;;;-1.10;100.00;95938.25;1027967;28;20065;-56
2021/03/19 01:40:48;;;;;;;42.60;20.65;;;;;;;-1.17;100.00;95937.88;1031768;28;20400;-56
2021/03/19 01:41:19;;;;;;;45.45;21.63;;;;;;;-1.17;100.00;95931.81;1031725;28;20022;-56
2021/03/19 01:41:52;;;;;;;42.42;20.52;;;;;;;-1.16;100.00;95939.50;1027831;28;20118;-53
2021/03/19 01:42:24;;;;;;;48.05;21.92;;;;;;;-1.16;100.00;95946.50;1027949;28;20434;-56
2021/03/19 01:42:59;;;;;;;42.55;21.10;;;;;;;-1.12;100.00;95940.13;1019950;29;20019;-56
2021/03/19 01:43:35;;;;;;;42.97;20.83;;;;;;;-1.13;100.00;95935.88;1035511;28;20030;-54
2021/03/19 01:44:08;;;;;;;42.40;21.52;;;;;;;-1.19;100.00;95938.91;1031713;28;20455;-55
2021/03/19 01:44:58;;;;;;;47.55;21.90;;;;;;;-1.27;100.00;95936.81;1027825;28;20435;-56
2021/03/19 01:45:48;;;;;;;41.67;20.98;;;;;;;-1.24;100.00;95941.78;1023792;28;20270;-57
2021/03/19 01:46:38;;;;;;;45.00;20.98;;;;;;;-1.23;100.00;95932.22;1027811;28;20023;-57
2021/03/19 01:47:28;;;;;;;43.05;20.75;;;;;;;-1.21;100.00;95931.19;1028995;28;20392;-56
2021/03/19 01:48:18;;;;;;;45.40;20.73;;;;;;;-1.20;100.00;95937.22;1032951;28;20258;-56
2021/03/19 01:49:08;;;;;;;44.45;21.15;;;;;;;-1.18;100.00;95938.78;1030535;28;20250;-56
2021/03/19 01:49:58;;;;;;;46.85;20.35;;;;;;;-1.17;100.00;95942.22;1029023;28;20113;-56
2021/03/19 01:50:49;;;;;;;48.53;20.73;;;;;;;-1.21;100.00;95935.56;1026562;28;20081;-53
2021/03/19 01:51:39;;;;;;;46.38;21.98;;;;;;;-1.23;100.00;95933.06;1033320;28;20253;-56
2021/03/19 01:52:29;;;;;;;48.58;22.13;;;;;;;-1.23;100.00;95932.22;1030296;28;20029;-55
2021/03/19 01:53:19;;;;;;;46.20;21.25;;;;;;;-1.22;100.00;95934.75;1026513;28;20033;-56
2021/03/19 01:54:09;;;;;;;48.17;21.08;;;;;;;-1.26;100.00;95938.47;1028870;28;20015;-56
2021/03/19 01:54:59;;;;;;;43.17;20.13;;;;;;;-1.27;100.00;95938.56;1030337;28;20297;-57
2021/03/19 01:55:49;;;;;;;54.72;22.55;;;;;;;-1.27;100.00;95931.59;1027808;28;20337;-56
2021/03/19 01:56:39;;;;;;;52.55;21.45;;;;;;;-1.27;100.00;95926.41;1027746;28;20258;-56
2021/03/19 01:57:29;;;;;;;51.72;22.00;;;;;;;-1.26;100.00;95932.44;1032989;28;20309;-56
2021/03/19 01:58:19;;;;;;;50.00;22.30;;;;;;;-1.30;100.00;95930.97;1028808;28;20263;-56
2021/03/19 01:59:09;;;;;;;44.45;20.65;;;;;;;-1.29;100.00;95925.66;1039906;28;20268;-56
2021/03/19 01:59:59;;;;;;;50.65;22.38;;;;;;;-1.29;100.00;95922.22;1034593;28;20264;-57
2021/03/19 02:00:49;;;;;;;45.53;23.25;;;;;;;-1.35;100.00;95924.28;1027677;28;20673;-55
2021/03/19 02:01:39;;;;;;;50.88;21.58;;;;;;;-1.35;100.00;95926.91;1029040;28;20038;-56
2021/03/19 02:02:29;;;;;;;51.35;23.15;;;;;;;-1.34;100.00;95925.97;1033007;28;20277;-56
2021/03/19 02:03:19;;;;;;;52.10;22.10;;;;;;;-1.37;100.00;95909.72;1023526;28;20262;-58
2021/03/19 02:04:09;;;;;;;50.80;22.88;;;;;;;-1.34;100.00;95925.16;1019701;29;20773;-56
2021/03/19 02:04:59;;;;;;;50.17;22.10;;;;;;;-1.34;100.00;95920.75;1024850;28;20690;-56
2021/03/19 02:05:49;;;;;;;51.20;22.60;;;;;;;-1.38;100.00;95921.88;1028963;28;20782;-56
2021/03/19 02:06:39;;;;;;;49.67;22.92;;;;;;;-1.39;100.00;95920.25;1020996;29;20259;-56
2021/03/19 02:07:29;;;;;;;51.50;22.58;;;;;;;-1.39;100.00;95917.63;1024959;28;20267;-56
2021/03/19 02:08:19;;;;;;;51.60;23.13;;;;;;;-1.41;100.00;95921.25;1023625;28;20278;-56
2021/03/19 02:09:09;;;;;;;48.67;21.95;;;;;;;-1.42;100.00;95917.00;1030102;28;20476;-56
2021/03/19 02:09:59;;;;;;;51.17;22.70;;;;;;;-1.41;100.00;95919.50;1030253;28;20301;-56
2021/03/19 02:10:49;;;;;;;52.10;23.23;;;;;;;-1.45;100.00;95917.22;1026531;28;20277;-56
2021/03/19 02:11:39;;;;;;;57.30;22.85;;;;;;;-1.46;100.00;95915.53;1026314;28;20267;-57
2021/03/19 02:12:30;;;;;;;48.65;22.45;;;;;;;-1.44;100.00;95917.09;1026104;28;20270;-57
2021/03/19 02:13:21;;;;;;;48.17;22.05;;;;;;;-1.44;100.00;95914.50;1027733;28;20347;-56
2021/03/19 02:14:12;;;;;;;53.58;22.52;;;;;;;-1.47;100.00;95919.91;1030529;28;20259;-56
2021/03/19 02:15:02;;;;;;;47.67;21.95;;;;;;;-1.48;100.00;95915.66;1031666;28;20245;-56
2021/03/19 02:15:53;;;;;;;50.65;23.95;;;;;;;-1.50;100.00;95914.91;1037282;28;20845;-56
2021/03/19 02:16:43;;;;;;;51.08;22.83;;;;;;;-1.51;100.00;95915.84;1027788;28;20318;-57
2021/03/19 02:17:34;;;;;;;50.70;23.75;;;;;;;-1.56;100.00;95910.13;1023753;28;20688;-55
2021/03/19 02:18:24;;;;;;;62.80;25.77;;;;;;;-1.51;100.00;95918.47;1029015;28;20265;-54
2021/03/19 02:19:14;;;;;;;53.55;24.10;;;;;;;-1.58;100.00;95906.78;1030289;28;20269;-56
2021/03/19 02:20:04;;;;;;;51.83;24.02;;;;;;;-1.48;100.00;95918.25;1025026;28;20267;-55
2021/03/19 02:20:54;;;;;;;52.40;22.92;;;;;;;-1.48;100.00;95923.47;1028984;28;20262;-57
2021/03/19 02:21:44;;;;;;;55.95;24.17;;;;;;;-1.49;100.00;95916.59;1034009;28;20762;-57
2021/03/19 02:22:35;;;;;;;57.58;24.70;;;;;;;-1.48;100.00;95923.47;1031843;28;20336;-57
2021/03/19 02:23:25;;;;;;;54.53;23.45;;;;;;;-1.54;100.00;95913.44;1034290;28;20356;-56
2021/03/19 02:24:16;;;;;;;50.95;22.77;;;;;;;-1.52;100.00;95919.38;1028933;28;20759;-57
2021/03/19 02:25:06;;;;;;;55.88;23.25;;;;;;;-1.54;100.00;95913.44;1025063;28;20262;-57
2021/03/19 02:25:56;;;;;;;50.63;23.48;;;;;;;-1.58;100.00;95925.03;1024948;28;20313;-57
2021/03/19 02:26:47;;;;;;;59.15;24.10;;;;;;;-1.52;100.00;95927.19;1033066;28;20797;-56
2021/03/19 02:27:38;;;;;;;56.10;24.10;;;;;;;-1.53;100.00;95923.78;1037127;28;20299;-55
2021/03/19 02:28:28;;;;;;;53.72;23.48;;;;;;;-1.54;100.00;95924.69;1030415;28;20273;-56
2021/03/19 02:29:18;;;;;;;53.25;24.15;;;;;;;-1.54;100.00;95918.66;1031700;28;20320;-57
2021/03/19 02:30:08;;;;;;;57.40;24.42;;;;;;;-1.58;100.00;95917.22;1027735;28;20360;-57
2021/03/19 02:30:59;;;;;;;60.88;25.88;;;;;;;-1.66;100.00;95915.09;1023835;28;20393;-57
2021/03/19 02:31:44;;;;;;;55.22;24.45;;;;;;;-1.58;100.00;95928.44;1027733;28;20251;-56
2021/03/19 02:32:17;;;;;;;61.38;27.27;;;;;;;-1.59;100.00;95925.94;1028358;28;20027;-57
2021/03/19 02:32:58;;;;;;;61.88;25.70;;;;;;;-1.59;100.00;95931.16;1027731;28;20743;-56
2021/03/19 02:33:29;;;;;;;59.70;25.55;;;;;;;-1.65;100.00;95921.16;1035337;28;20521;-54
2021/03/19 02:34:00;;;;;;;54.95;24.85;;;;;;;-1.60;100.00;95930.31;1027585;28;20776;-57
2021/03/19 02:34:36;;;;;;;61.08;24.52;;;;;;;-1.60;100.00;95924.25;1023650;28;20059;-57
2021/03/19 02:35:10;;;;;;;58.17;25.58;;;;;;;-1.60;100.00;95930.31;1023689;29;20031;-56
2021/03/19 02:35:51;;;;;;;59.40;25.58;;;;;;;-1.61;100.00;95933.03;1031626;28;20018;-56
2021/03/19 02:36:24;;;;;;;62.55;26.13;;;;;;;-1.63;100.00;95930.53;1023775;29;20030;-56
2021/03/19 02:36:56;;;;;;;63.80;26.08;;;;;;;-1.61;100.00;95930.41;1015802;29;20155;-56
2021/03/19 02:37:29;;;;;;;61.38;26.92;;;;;;;-1.64;100.00;95925.41;1027518;28;20031;-56
2021/03/19 02:38:00;;;;;;;52.80;24.00;;;;;;;-1.64;100.00;95934.03;1027579;28;20077;-56
2021/03/19 02:38:31;;;;;;;53.55;24.02;;;;;;;-1.65;100.00;95927.19;1027634;28;20320;-56
2021/03/19 02:39:02;;;;;;;60.88;25.83;;;;;;;-1.65;100.00;95931.56;1027599;28;20037;-56
2021/03/19 02:39:32;;;;;;;61.60;26.17;;;;;;;-1.66;100.00;95929.88;1023636;29;20054;-56
2021/03/19 02:40:05;;;;;;;61.78;26.80;;;;;;;-1.66;100.00;95927.28;1031560;28;20032;-56
2021/03/19 02:40:36;;;;;;;67.72;28.27;;;;;;;-1.77;100.00;95913.22;1023601;28;20023;-56